createdAt,value
2023-01-23T00:02:10.472Z,72.16
2023-01-23T00:04:38.612Z,72.36
2023-01-23T00:07:05.377Z,72.67
2023-01-23T00:09:32.140Z,73.06
2023-01-23T00:11:59.297Z,72.73
2023-01-23T00:14:26.443Z,72.27
2023-01-23T00:16:53.383Z,72.01
2023-01-23T00:19:20.377Z,72.12
2023-01-23T00:21:48.440Z,72.40
2023-01-23T00:24:15.155Z,72.48
2023-01-23T00:26:42.156Z,72.19
2023-01-23T00:29:09.157Z,71.96
2023-01-23T00:31:38.623Z,71.81
2023-01-23T00:34:07.831Z,71.85
2023-01-23T00:36:37.409Z,71.80
2023-01-23T00:39:08.355Z,72.08
2023-01-23T00:41:35.305Z,72.00
2023-01-23T00:44:02.278Z,71.97
2023-01-23T00:46:29.033Z,72.33
2023-01-23T00:48:55.689Z,72.16
2023-01-23T00:51:22.696Z,72.38
2023-01-23T00:53:49.695Z,72.33
2023-01-23T00:56:18.079Z,72.53
2023-01-23T00:58:45.290Z,72.27
2023-01-23T01:01:12.563Z,72.41
2023-01-23T01:03:41.727Z,72.58
2023-01-23T01:06:09.283Z,72.99
2023-01-23T01:08:36.077Z,73.18
2023-01-23T01:11:03.339Z,73.68
2023-01-23T01:13:32.164Z,73.60
2023-01-23T01:15:59.015Z,73.41
2023-01-23T01:18:25.701Z,73.74
2023-01-23T01:20:52.445Z,73.68
2023-01-23T01:23:19.612Z,74.06
2023-01-23T01:25:46.864Z,73.84
2023-01-23T01:28:17.468Z,73.79
2023-01-23T01:30:45.670Z,73.91
2023-01-23T01:33:12.479Z,73.92
2023-01-23T01:35:39.746Z,73.95
2023-01-23T01:38:06.464Z,74.07
2023-01-23T01:40:35.183Z,74.08
2023-01-23T01:43:06.238Z,74.12
2023-01-23T01:46:06.822Z,74.10
2023-01-23T01:48:38.518Z,74.48
2023-01-23T01:51:12.027Z,74.34
2023-01-23T01:53:40.009Z,74.44
2023-01-23T01:56:10.276Z,74.62
2023-01-23T01:58:37.698Z,75.40
2023-01-23T02:01:06.067Z,75.39
2023-01-23T02:03:32.915Z,75.85
2023-01-23T02:06:00.169Z,75.92
2023-01-23T02:08:33.656Z,76.04
2023-01-23T02:11:01.191Z,76.20
2023-01-23T02:13:29.826Z,76.38
2023-01-23T02:15:58.219Z,77.03
2023-01-23T02:18:28.802Z,76.88
2023-01-23T02:20:57.802Z,77.07
2023-01-23T02:23:31.048Z,77.08
2023-01-23T02:26:01.540Z,76.74
2023-01-23T02:28:38.284Z,76.80
2023-01-23T02:31:06.018Z,76.85
2023-01-23T02:33:51.060Z,76.74
2023-01-23T02:36:19.614Z,76.44
2023-01-23T02:39:09.567Z,76.23
2023-01-23T02:41:39.841Z,76.17
2023-01-23T02:44:12.267Z,76.25
2023-01-23T02:46:39.022Z,76.08
2023-01-23T02:49:05.910Z,75.97
2023-01-23T02:51:32.649Z,76.39
2023-01-23T02:53:59.423Z,76.44
2023-01-23T02:56:26.215Z,76.35
2023-01-23T02:58:54.384Z,76.02
2023-01-23T03:01:21.362Z,76.22
2023-01-23T03:03:53.289Z,76.18
2023-01-23T03:06:20.034Z,76.54
2023-01-23T03:08:46.800Z,76.33
2023-01-23T03:11:15.239Z,77.24
2023-01-23T03:13:41.970Z,77.11
2023-01-23T03:16:10.126Z,76.71
2023-01-23T03:18:52.876Z,76.58
2023-01-23T03:21:22.633Z,76.48
2023-01-23T03:23:49.396Z,76.61
2023-01-23T03:26:16.271Z,76.87
2023-01-23T03:28:42.990Z,77.32
2023-01-23T03:31:11.648Z,77.63
2023-01-23T03:33:38.917Z,77.52
2023-01-23T03:36:06.223Z,77.12
2023-01-23T03:38:32.875Z,77.24
2023-01-23T03:40:59.650Z,77.28
2023-01-23T03:43:31.014Z,78.08
2023-01-23T03:45:57.751Z,78.61
2023-01-23T03:48:26.045Z,80.11
2023-01-23T03:50:52.853Z,80.26
2023-01-23T03:53:19.625Z,80.23
2023-01-23T03:55:46.796Z,80.28
2023-01-23T03:58:13.699Z,80.33
2023-01-23T04:00:43.128Z,79.94
2023-01-23T04:03:09.911Z,79.29
2023-01-23T04:05:38.072Z,79.48
2023-01-23T04:08:05.277Z,78.60
2023-01-23T04:10:32.049Z,78.46
2023-01-23T04:12:58.735Z,78.20
2023-01-23T04:15:25.508Z,77.58
2023-01-23T04:17:54.800Z,77.39
2023-01-23T04:20:21.728Z,76.76
2023-01-23T04:22:50.032Z,76.62
2023-01-23T04:25:16.804Z,76.43
2023-01-23T04:27:43.499Z,76.54
2023-01-23T04:30:11.293Z,76.42
2023-01-23T04:32:38.022Z,76.44
2023-01-23T04:35:05.597Z,76.27
2023-01-23T04:37:32.275Z,76.04
2023-01-23T04:40:00.343Z,75.67
2023-01-23T04:42:27.076Z,75.77
2023-01-23T04:44:53.810Z,76.05
2023-01-23T04:47:20.487Z,77.12
2023-01-23T04:49:47.187Z,78.26
2023-01-23T04:52:13.826Z,78.68
2023-01-23T04:54:40.610Z,78.87
2023-01-23T04:57:08.735Z,79.27
2023-01-23T04:59:35.596Z,79.57
2023-01-23T05:02:02.414Z,79.47
2023-01-23T05:04:29.156Z,79.46
2023-01-23T05:06:55.900Z,79.34
2023-01-23T05:09:22.607Z,79.43
2023-01-23T05:11:49.351Z,80.08
2023-01-23T05:14:17.527Z,80.05
2023-01-23T05:16:44.368Z,79.91
2023-01-23T05:19:11.300Z,80.85
2023-01-23T05:21:38.028Z,80.36
2023-01-23T05:24:05.508Z,79.98
2023-01-23T05:26:32.299Z,79.85
2023-01-23T05:28:58.961Z,79.34
2023-01-23T05:31:27.138Z,79.28
2023-01-23T05:33:54.113Z,78.95
2023-01-23T05:36:23.811Z,79.19
2023-01-23T05:38:50.497Z,79.47
2023-01-23T05:41:17.381Z,79.59
2023-01-23T05:43:44.393Z,79.28
2023-01-23T05:46:11.154Z,79.27
2023-01-23T05:48:39.268Z,80.15
2023-01-23T05:51:06.232Z,80.63
2023-01-23T05:53:32.910Z,80.95
2023-01-23T05:55:59.634Z,80.98
2023-01-23T05:58:26.302Z,80.88
2023-01-23T06:00:52.987Z,81.13
2023-01-23T06:03:19.652Z,81.29
2023-01-23T06:05:47.742Z,82.34
2023-01-23T06:08:14.491Z,83.31
2023-01-23T06:10:41.158Z,82.89
2023-01-23T06:13:07.836Z,82.42
2023-01-23T06:15:34.632Z,82.79
2023-01-23T06:18:01.502Z,82.34
2023-01-23T06:20:28.320Z,82.08
2023-01-23T06:22:57.025Z,81.76
2023-01-23T06:25:23.723Z,81.60
2023-01-23T06:27:50.371Z,81.38
2023-01-23T06:30:17.648Z,81.32
2023-01-23T06:32:44.638Z,81.04
2023-01-23T06:35:11.318Z,81.04
2023-01-23T06:37:38.085Z,80.96
2023-01-23T06:40:07.695Z,80.83
2023-01-23T06:42:34.392Z,80.81
2023-01-23T06:45:01.096Z,80.39
2023-01-23T06:47:27.962Z,80.15
2023-01-23T06:49:54.639Z,79.72
2023-01-23T06:52:21.341Z,79.81
2023-01-23T06:54:49.684Z,80.18
2023-01-23T06:57:20.492Z,80.41
2023-01-23T06:59:47.160Z,80.03
2023-01-23T07:02:13.956Z,79.41
2023-01-23T07:04:40.596Z,79.60
2023-01-23T07:07:07.345Z,79.17
2023-01-23T07:09:34.041Z,79.32
2023-01-23T07:12:03.387Z,80.21
2023-01-23T07:14:31.452Z,80.09
2023-01-23T07:16:58.211Z,80.06
2023-01-23T07:19:25.299Z,80.30
2023-01-23T07:21:52.008Z,79.79
2023-01-23T07:24:18.686Z,79.96
2023-01-23T07:26:45.500Z,80.50
2023-01-23T07:29:12.167Z,80.84
2023-01-23T07:31:40.466Z,80.92
2023-01-23T07:34:07.307Z,80.70
2023-01-23T07:36:34.009Z,80.19
2023-01-23T07:39:00.749Z,80.94
2023-01-23T07:41:27.497Z,80.67
2023-01-23T07:43:54.191Z,81.10
2023-01-23T07:46:21.090Z,79.94
2023-01-23T07:48:49.205Z,79.95
2023-01-23T07:51:16.005Z,79.71
2023-01-23T07:53:42.899Z,80.43
2023-01-23T07:56:09.669Z,80.07
2023-01-23T07:58:36.441Z,80.07
2023-01-23T08:01:08.552Z,79.89
2023-01-23T08:03:35.292Z,79.42
2023-01-23T08:06:03.547Z,79.46
2023-01-23T08:08:30.269Z,79.72
2023-01-23T08:10:57.121Z,79.28
2023-01-23T08:13:23.812Z,79.15
2023-01-23T08:15:50.503Z,79.02
2023-01-23T08:18:17.167Z,79.08
2023-01-23T08:20:43.864Z,79.28
2023-01-23T08:23:11.965Z,78.95
2023-01-23T08:25:38.619Z,79.28
2023-01-23T08:28:05.341Z,79.04
2023-01-23T08:30:32.127Z,78.44
2023-01-23T08:32:59.589Z,78.52
2023-01-23T08:35:26.245Z,78.29
2023-01-23T08:37:53.023Z,77.78
2023-01-23T08:40:21.385Z,77.58
2023-01-23T08:42:48.210Z,77.46
2023-01-23T08:45:15.011Z,77.34
2023-01-23T08:47:41.759Z,77.14
2023-01-23T08:50:10.299Z,77.21
2023-01-23T08:52:37.064Z,76.85
2023-01-23T08:55:04.130Z,76.66
2023-01-23T08:57:32.251Z,76.52
2023-01-23T08:59:59.003Z,76.63
2023-01-23T09:02:25.742Z,76.46
2023-01-23T09:04:52.477Z,75.94
2023-01-23T09:07:19.218Z,75.89
2023-01-23T09:09:45.880Z,75.19
2023-01-23T09:12:12.617Z,74.55
2023-01-23T09:14:40.917Z,73.85
2023-01-23T09:17:07.638Z,73.84
2023-01-23T09:19:34.773Z,73.94
2023-01-23T09:22:01.490Z,74.34
2023-01-23T09:24:28.214Z,74.29
2023-01-23T09:26:54.957Z,73.93
2023-01-23T09:29:21.869Z,73.16
2023-01-23T09:31:49.992Z,73.14
2023-01-23T09:34:17.361Z,73.37
2023-01-23T09:36:44.193Z,73.13
2023-01-23T09:39:11.559Z,72.85
2023-01-23T09:41:39.609Z,73.03
2023-01-23T09:44:12.550Z,73.05
2023-01-23T09:46:45.967Z,73.36
2023-01-23T09:49:22.500Z,73.16
2023-01-23T09:51:55.739Z,72.69
2023-01-23T09:54:42.967Z,72.72
2023-01-23T09:57:15.213Z,72.40
2023-01-23T09:59:59.175Z,72.01
2023-01-23T10:02:29.521Z,71.80
2023-01-23T10:04:58.709Z,71.73
2023-01-23T10:07:44.767Z,71.71
2023-01-23T10:10:27.558Z,72.00
2023-01-23T10:13:05.407Z,71.96
2023-01-23T10:15:46.393Z,71.62
2023-01-23T10:18:23.030Z,71.47
2023-01-23T10:21:10.426Z,71.53
2023-01-23T10:23:47.033Z,71.75
2023-01-23T10:26:18.620Z,71.54
2023-01-23T10:28:47.400Z,70.79
2023-01-23T10:31:30.587Z,69.76
2023-01-23T10:34:06.842Z,69.55
2023-01-23T10:36:53.295Z,69.51
2023-01-23T10:39:26.500Z,68.30
2023-01-23T10:42:01.033Z,68.72
2023-01-23T10:44:28.951Z,67.97
2023-01-23T10:47:00.852Z,67.90
2023-01-23T10:49:29.138Z,67.75
2023-01-23T10:51:57.712Z,67.76
2023-01-23T10:54:33.741Z,68.37
2023-01-23T10:57:02.756Z,69.50
2023-01-23T10:59:36.025Z,69.73
2023-01-23T11:02:18.320Z,69.68
2023-01-23T11:04:47.374Z,69.47
2023-01-23T11:07:17.938Z,69.10
2023-01-23T11:09:53.740Z,66.52
2023-01-23T11:12:22.789Z,65.86
2023-01-23T11:14:50.118Z,64.89
2023-01-23T11:17:21.330Z,64.34
2023-01-23T11:19:50.087Z,63.23
2023-01-23T11:22:29.396Z,62.47
2023-01-23T11:24:56.756Z,62.62
2023-01-23T11:27:25.119Z,62.33
2023-01-23T11:30:03.214Z,62.37
2023-01-23T11:32:35.340Z,62.53
2023-01-23T11:35:13.260Z,61.57
2023-01-23T11:37:42.377Z,61.23
2023-01-23T11:40:13.335Z,60.30
2023-01-23T11:42:42.026Z,59.83
2023-01-23T11:45:14.572Z,60.28
2023-01-23T11:48:03.632Z,61.34
2023-01-23T11:50:54.069Z,62.12
2023-01-23T11:53:41.876Z,62.70
2023-01-23T11:56:37.128Z,61.87
2023-01-23T11:59:20.109Z,61.01
2023-01-23T12:02:03.972Z,60.64
2023-01-23T12:04:59.869Z,60.88
2023-01-23T12:07:27.556Z,60.47
2023-01-23T12:10:09.700Z,58.53
2023-01-23T12:12:51.803Z,59.05
2023-01-23T12:15:30.299Z,59.90
2023-01-23T12:18:04.878Z,60.47
2023-01-23T12:20:41.905Z,60.99
2023-01-23T12:23:21.912Z,60.06
2023-01-23T12:26:01.391Z,59.57
2023-01-23T12:28:46.494Z,60.01
2023-01-23T12:31:31.191Z,60.43
2023-01-23T12:34:22.564Z,60.64
2023-01-23T12:37:16.823Z,61.49
2023-01-23T12:40:03.410Z,60.23
2023-01-23T12:42:40.923Z,61.02
2023-01-23T12:45:19.144Z,61.83
2023-01-23T12:47:53.717Z,59.22
2023-01-23T12:50:27.022Z,59.26
2023-01-23T12:53:01.148Z,58.62
2023-01-23T12:55:35.180Z,58.89
2023-01-23T12:58:09.357Z,59.90
2023-01-23T13:00:47.594Z,60.31
2023-01-23T13:03:46.957Z,59.90
2023-01-23T13:06:35.267Z,59.96
2023-01-23T13:09:17.963Z,58.42
2023-01-23T13:12:00.700Z,55.59
2023-01-23T13:15:03.216Z,53.01
2023-01-23T13:17:37.833Z,53.10
2023-01-23T13:20:23.755Z,52.98
2023-01-23T13:22:50.588Z,52.93
2023-01-23T13:25:19.891Z,51.01
2023-01-23T13:27:50.417Z,50.24
2023-01-23T13:30:42.678Z,50.53
2023-01-23T13:33:52.217Z,50.33
2023-01-23T13:36:26.661Z,51.86
2023-01-23T13:39:21.611Z,52.09
2023-01-23T13:41:53.353Z,51.53
2023-01-23T13:44:24.860Z,52.56
2023-01-23T14:25:39.241Z,56.44
2023-01-23T14:28:06.211Z,56.51
2023-01-23T14:30:33.003Z,56.12
2023-01-23T14:32:59.755Z,56.51
2023-01-23T14:35:30.160Z,56.50
2023-01-23T14:37:59.012Z,56.09
2023-01-23T14:40:28.754Z,56.79
2023-01-23T14:43:00.925Z,57.09
2023-01-23T14:45:32.036Z,56.67
2023-01-23T14:48:06.110Z,56.36
2023-01-23T14:50:35.241Z,56.60
2023-01-23T14:53:04.107Z,56.24
2023-01-23T14:55:34.514Z,56.81
2023-01-23T14:58:03.517Z,56.28
2023-01-23T15:00:31.127Z,55.90
2023-01-23T15:02:57.819Z,56.22
2023-01-23T15:05:26.524Z,55.84
2023-01-23T15:07:57.263Z,55.37
2023-01-23T15:10:27.144Z,55.46
2023-01-23T15:12:58.422Z,55.51
2023-01-23T15:15:27.014Z,56.09
2023-01-23T15:17:55.008Z,57.13
2023-01-23T15:20:34.437Z,57.28
2023-01-23T15:23:28.542Z,57.93
2023-01-23T15:26:30.102Z,57.55
2023-01-23T15:28:58.200Z,56.62
2023-01-23T15:31:28.507Z,55.14
2023-01-23T15:33:57.361Z,55.33
2023-01-23T15:36:27.281Z,56.34
2023-01-23T15:38:56.461Z,57.55
2023-01-23T15:41:38.139Z,58.86
2023-01-23T15:44:14.896Z,59.07
2023-01-23T15:46:42.137Z,59.80
2023-01-23T15:49:23.549Z,60.24
2023-01-23T15:51:51.899Z,60.19
2023-01-23T15:54:26.455Z,60.88
2023-01-23T15:57:05.468Z,61.52
2023-01-23T15:59:34.411Z,62.22
2023-01-23T16:02:01.236Z,62.90
2023-01-23T16:04:27.995Z,63.54
2023-01-23T16:06:54.711Z,64.27
2023-01-23T16:09:28.542Z,65.48
2023-01-23T16:11:55.300Z,66.47
2023-01-23T16:14:22.038Z,67.40
2023-01-23T16:16:48.839Z,68.40
2023-01-23T16:19:17.955Z,69.18
2023-01-23T16:22:03.154Z,69.90
2023-01-23T16:24:36.855Z,70.74
2023-01-23T16:27:04.116Z,70.82
2023-01-23T16:29:32.452Z,71.60
2023-01-23T16:32:01.178Z,71.94
2023-01-23T16:34:28.419Z,72.67
2023-01-23T16:36:58.045Z,72.59
2023-01-23T16:39:29.985Z,72.90
2023-01-23T16:41:58.168Z,73.48
2023-01-23T16:44:24.873Z,73.91
2023-01-23T16:46:52.782Z,73.68
2023-01-23T16:49:20.319Z,74.09
2023-01-23T16:51:51.471Z,74.28
2023-01-23T16:54:21.366Z,74.58
2023-01-23T16:56:49.720Z,74.54
2023-01-23T16:59:21.152Z,74.55
2023-01-23T17:01:50.819Z,74.64
2023-01-23T17:04:20.300Z,74.85
2023-01-23T17:06:48.197Z,74.76
2023-01-23T17:09:15.821Z,74.47
2023-01-23T17:11:44.890Z,74.25
2023-01-23T17:14:16.233Z,73.96
2023-01-23T17:16:45.310Z,73.99
2023-01-23T17:19:20.313Z,74.10
2023-01-23T17:21:47.609Z,73.35
2023-01-23T17:24:16.396Z,73.02
2023-01-23T17:26:43.212Z,72.98
2023-01-23T17:29:10.185Z,73.01
2023-01-23T17:31:38.812Z,72.89
2023-01-23T17:34:20.101Z,73.18
2023-01-23T17:36:46.891Z,73.06
2023-01-23T17:39:13.551Z,73.36
2023-01-23T17:41:40.340Z,73.64
2023-01-23T17:44:07.062Z,73.52
2023-01-23T17:46:35.236Z,73.39
2023-01-23T17:49:02.407Z,73.56
2023-01-23T17:51:31.984Z,73.32
2023-01-23T17:53:58.727Z,73.64
2023-01-23T17:56:25.419Z,73.60
2023-01-23T17:58:52.109Z,73.34
2023-01-23T18:01:22.286Z,73.07
2023-01-23T18:03:50.096Z,72.78
2023-01-23T18:06:17.565Z,73.18
2023-01-23T18:08:45.903Z,72.89
2023-01-23T18:11:20.443Z,73.06
2023-01-23T18:14:02.262Z,72.99
2023-01-23T18:16:36.479Z,73.14
2023-01-23T18:19:15.111Z,73.38
2023-01-23T18:21:42.393Z,74.16
2023-01-23T18:24:22.245Z,74.43
2023-01-23T18:26:56.108Z,74.20
2023-01-23T18:29:30.294Z,74.50
2023-01-23T18:32:19.830Z,74.61
2023-01-23T18:34:53.252Z,74.42
2023-01-23T18:37:32.966Z,74.76
2023-01-23T18:40:10.762Z,75.39
2023-01-23T18:42:48.383Z,75.65
2023-01-23T18:45:23.774Z,76.33
2023-01-23T18:47:56.859Z,76.75
2023-01-23T18:50:24.501Z,76.72
2023-01-23T18:53:11.708Z,76.59
2023-01-23T18:55:49.887Z,76.44
2023-01-23T18:58:30.751Z,75.97
2023-01-23T19:01:12.286Z,76.09
2023-01-23T19:03:42.883Z,75.70
2023-01-23T19:06:18.900Z,75.70
2023-01-23T19:08:45.903Z,75.83
2023-01-23T19:11:26.617Z,76.25
2023-01-23T19:14:09.879Z,76.64
2023-01-23T19:16:44.953Z,76.95
2023-01-23T19:19:21.223Z,77.29
2023-01-23T19:21:48.212Z,76.95
2023-01-23T19:24:18.095Z,76.77
2023-01-23T19:26:47.170Z,76.80
2023-01-23T19:29:23.095Z,76.97
2023-01-23T19:32:06.921Z,77.27
2023-01-23T19:34:34.663Z,77.26
2023-01-23T19:37:01.691Z,77.63
2023-01-23T19:39:29.982Z,77.96
2023-01-23T19:41:58.813Z,77.91
2023-01-23T19:44:25.742Z,77.95
2023-01-23T19:46:52.640Z,78.01
2023-01-23T19:49:19.774Z,77.67
2023-01-23T19:51:46.764Z,77.77
2023-01-23T19:54:14.792Z,77.60
2023-01-23T19:56:41.786Z,77.51
2023-01-23T19:59:10.176Z,77.59
2023-01-23T20:01:39.260Z,77.61
2023-01-23T20:04:07.400Z,78.32
2023-01-23T20:06:34.286Z,78.13
2023-01-23T20:09:01.127Z,77.66
2023-01-23T20:11:27.819Z,77.26
2023-01-23T20:13:54.508Z,77.17
2023-01-23T20:16:23.541Z,77.22
2023-01-23T20:18:51.250Z,77.57
2023-01-23T20:21:20.227Z,77.46
2023-01-23T20:23:48.056Z,77.60
2023-01-23T20:26:16.134Z,77.32
2023-01-23T20:28:43.456Z,76.77
2023-01-23T20:31:12.579Z,76.70
2023-01-23T20:33:40.757Z,77.01
2023-01-23T20:36:08.617Z,76.64
2023-01-23T20:38:35.271Z,76.30
2023-01-23T20:41:02.808Z,75.89
2023-01-23T20:43:29.526Z,75.77
2023-01-23T20:45:56.261Z,76.03
2023-01-23T20:48:22.993Z,76.06
2023-01-23T20:50:55.654Z,76.04
2023-01-23T20:53:22.689Z,75.81
2023-01-23T20:55:52.811Z,76.11
2023-01-23T20:58:19.502Z,76.64
2023-01-23T21:00:46.179Z,77.58
2023-01-23T21:03:12.945Z,78.82
2023-01-23T21:05:39.748Z,80.01
2023-01-23T21:08:07.784Z,80.44
2023-01-23T21:10:34.681Z,80.67
2023-01-23T21:13:01.448Z,81.82
2023-01-23T21:15:28.160Z,82.68
2023-01-23T21:17:54.823Z,82.57
2023-01-23T21:20:21.665Z,82.25
2023-01-23T21:22:48.366Z,81.83
2023-01-23T21:25:16.525Z,81.03
2023-01-23T21:27:43.343Z,80.22
2023-01-23T21:30:11.177Z,80.24
2023-01-23T21:32:37.923Z,79.76
2023-01-23T21:35:05.299Z,78.67
2023-01-23T21:37:32.190Z,77.80
2023-01-23T21:39:58.890Z,78.13
2023-01-23T21:42:27.215Z,80.19
2023-01-23T21:44:53.939Z,81.12
2023-01-23T21:47:20.647Z,81.08
2023-01-23T21:49:47.351Z,80.99
2023-01-23T21:52:14.021Z,81.16
2023-01-23T21:54:40.699Z,81.79
2023-01-23T21:57:07.484Z,82.36
2023-01-23T21:59:35.594Z,81.91
2023-01-23T22:02:02.276Z,81.82
2023-01-23T22:04:28.983Z,81.38
2023-01-23T22:06:57.393Z,81.53
2023-01-23T22:09:25.556Z,81.61
2023-01-23T22:11:52.712Z,81.26
2023-01-23T22:14:19.716Z,80.94
2023-01-23T22:16:49.703Z,80.47
2023-01-23T22:19:18.439Z,80.77
2023-01-23T22:21:46.136Z,80.64
2023-01-23T22:24:13.026Z,80.61
2023-01-23T22:26:39.716Z,80.39
2023-01-23T22:29:06.363Z,79.78
2023-01-23T22:31:33.129Z,79.41
2023-01-23T22:34:01.251Z,78.86
2023-01-23T22:36:28.034Z,79.13
2023-01-23T22:38:55.364Z,77.81
2023-01-23T22:41:22.836Z,77.53
2023-01-23T22:43:55.175Z,77.99
2023-01-23T22:46:23.099Z,77.39
2023-01-23T22:48:55.536Z,77.30
2023-01-23T22:51:25.996Z,77.25
2023-01-23T22:53:53.434Z,77.42
2023-01-23T22:56:20.248Z,77.46
2023-01-23T22:58:47.895Z,77.33
2023-01-23T23:01:14.810Z,76.94
2023-01-23T23:03:43.625Z,76.70
2023-01-23T23:06:15.590Z,76.25
2023-01-23T23:08:47.959Z,76.18
2023-01-23T23:11:17.216Z,76.27
2023-01-23T23:13:43.946Z,76.76
2023-01-23T23:16:13.062Z,76.64
2023-01-23T23:18:40.031Z,76.55
2023-01-23T23:21:09.457Z,77.10
2023-01-23T23:23:36.770Z,77.50
2023-01-23T23:26:05.423Z,77.61
2023-01-23T23:28:33.040Z,77.10
2023-01-23T23:30:59.761Z,76.68
2023-01-23T23:33:27.037Z,76.76
2023-01-23T23:35:54.078Z,76.78
2023-01-23T23:38:20.837Z,76.80
2023-01-23T23:40:54.302Z,76.37
2023-01-23T23:43:22.506Z,76.45
2023-01-23T23:45:54.422Z,76.53
2023-01-23T23:48:22.061Z,76.20
2023-01-23T23:50:48.984Z,76.49
2023-01-23T23:53:16.247Z,76.99
2023-01-23T23:55:43.107Z,76.57
2023-01-23T23:58:10.309Z,76.01
